Time,TemperatureF,DewpointF,PressureIn,WindDirection,WindDirectionDegrees,WindSpeedMPH,WindSpeedGustMPH,Humidity,HourlyPrecipIn,Conditions,Clouds,dailyrainin,SoftwareType,DateUTC
2013-05-31 00:00:00,70.0,65.0,30.02,NE,56,0.0,0.0,84,0.00,,,0.00,weatherlink.com 1.10,2013-05-31 04:00:00,
2013-05-31 00:16:00,69.2,64.0,30.02,NE,56,0.0,0.0,85,0.00,,,0.00,weatherlink.com 1.10,2013-05-31 04:16:00,
2013-05-31 00:32:00,68.7,65.0,30.03,NE,55,0.0,1.0,87,0.00,,,0.00,weatherlink.com 1.10,2013-05-31 04:32:00,
2013-05-31 00:48:00,68.6,65.0,30.03,NE,56,0.0,0.0,87,0.00,,,0.00,weatherlink.com 1.10,2013-05-31 04:48:00,
2013-05-31 01:03:00,68.2,64.0,30.03,NE,56,0.0,0.0,87,0.00,,,0.00,weatherlink.com 1.10,2013-05-31 05:03:00,
2013-05-31 01:19:00,67.8,64.0,30.03,NE,56,0.0,0.0,88,0.00,,,0.00,weatherlink.com 1.10,2013-05-31 05:19:00,
2013-05-31 01:35:00,67.5,64.0,30.03,NE,56,0.0,1.0,88,0.00,,,0.00,weatherlink.com 1.10,2013-05-31 05:35:00,
2013-05-31 01:51:00,67.1,64.0,30.03,NE,56,0.0,0.0,89,0.00,,,0.00,weatherlink.com 1.10,2013-05-31 05:51:00,
2013-05-31 02:07:00,66.8,64.0,30.03,NE,56,0.0,0.0,90,0.00,,,0.00,weatherlink.com 1.10,2013-05-31 06:07:00,
2013-05-31 02:22:00,66.5,63.0,30.03,NE,56,0.0,0.0,90,0.00,,,0.00,weatherlink.com 1.10,2013-05-31 06:22:00,
2013-05-31 02:38:00,66.2,63.0,30.03,NE,56,0.0,1.0,91,0.00,,,0.00,weatherlink.com 1.10,2013-05-31 06:38:00,
2013-05-31 02:54:00,65.8,63.0,30.03,NE,56,0.0,0.0,91,0.00,,,0.00,weatherlink.com 1.10,2013-05-31 06:54:00,
2013-05-31 03:10:00,65.4,63.0,30.03,NE,55,0.0,0.0,91,0.00,,,0.00,weatherlink.com 1.10,2013-05-31 07:10:00,
2013-05-31 03:25:00,65.2,63.0,30.03,NE,56,0.0,0.0,92,0.00,,,0.00,weatherlink.com 1.10,2013-05-31 07:25:00,
2013-05-31 03:41:00,65.4,63.0,30.02,NE,56,0.0,0.0,92,0.00,,,0.00,weatherlink.com 1.10,2013-05-31 07:41:00,
2013-05-31 03:57:00,64.9,63.0,30.03,NE,56,0.0,0.0,92,0.00,,,0.00,weatherlink.com 1.10,2013-05-31 07:57:00,
2013-05-31 04:13:00,64.8,62.0,30.03,NE,56,0.0,0.0,92,0.00,,,0.00,weatherlink.com 1.10,2013-05-31 08:13:00,
2013-05-31 04:28:00,65.0,63.0,30.03,NE,56,0.0,0.0,92,0.00,,,0.00,weatherlink.com 1.10,2013-05-31 08:28:00,
2013-05-31 04:44:00,64.5,62.0,30.03,NE,56,0.0,0.0,92,0.00,,,0.00,weatherlink.com 1.10,2013-05-31 08:44:00,
2013-05-31 05:00:00,64.2,62.0,30.03,ENE,57,0.0,0.0,93,0.00,,,0.00,weatherlink.com 1.10,2013-05-31 09:00:00,
2013-05-31 05:16:00,64.0,62.0,30.03,NE,56,0.0,0.0,93,0.00,,,0.00,weatherlink.com 1.10,2013-05-31 09:16:00,
2013-05-31 05:31:00,63.8,62.0,30.04,NE,56,0.0,0.0,93,0.00,,,0.00,weatherlink.com 1.10,2013-05-31 09:31:00,
2013-05-31 05:47:00,63.7,62.0,30.04,NE,56,0.0,0.0,93,0.00,,,0.00,weatherlink.com 1.10,2013-05-31 09:47:00,
2013-05-31 06:03:00,64.2,62.0,30.05,NE,56,0.0,0.0,94,0.00,,,0.00,weatherlink.com 1.10,2013-05-31 10:03:00,
2013-05-31 06:19:00,64.5,63.0,30.06,NE,56,0.0,0.0,94,0.00,,,0.00,weatherlink.com 1.10,2013-05-31 10:19:00,
2013-05-31 06:35:00,65.2,63.0,30.06,NE,50,0.0,1.0,94,0.00,,,0.00,weatherlink.com 1.10,2013-05-31 10:35:00,
2013-05-31 06:50:00,66.2,64.0,30.06,NE,50,0.0,0.0,93,0.00,,,0.00,weatherlink.com 1.10,2013-05-31 10:50:00,
2013-05-31 07:06:00,67.3,65.0,30.06,NE,50,0.0,0.0,92,0.00,,,0.00,weatherlink.com 1.10,2013-05-31 11:06:00,
2013-05-31 07:22:00,68.6,66.0,30.06,WNW,298,0.0,1.0,90,0.00,,,0.00,weatherlink.com 1.10,2013-05-31 11:22:00,
2013-05-31 07:37:00,69.7,66.0,30.07,WNW,283,0.0,2.0,89,0.00,,,0.00,weatherlink.com 1.10,2013-05-31 11:37:00,
2013-05-31 07:53:00,71.0,67.0,30.06,ESE,110,3.0,4.0,88,0.00,,,0.00,weatherlink.com 1.10,2013-05-31 11:53:00,
2013-05-31 08:09:00,72.9,68.0,30.06,ESE,110,0.0,4.0,84,0.00,,,0.00,weatherlink.com 1.10,2013-05-31 12:09:00,
2013-05-31 08:25:00,74.0,68.0,30.06,ESE,109,0.0,4.0,81,0.00,,,0.00,weatherlink.com 1.10,2013-05-31 12:25:00,
2013-05-31 08:41:00,75.5,69.0,30.06,NW,308,2.0,4.0,79,0.00,,,0.00,weatherlink.com 1.10,2013-05-31 12:41:00,
2013-05-31 08:56:00,77.1,68.0,30.06,SE,138,3.0,5.0,74,0.00,,,0.00,weatherlink.com 1.10,2013-05-31 12:56:00,
2013-05-31 09:12:00,77.5,67.0,30.05,ESE,123,3.0,6.0,71,0.00,,,0.00,weatherlink.com 1.10,2013-05-31 13:12:00,
2013-05-31 09:28:00,78.7,69.0,30.05,ESE,123,4.0,6.0,71,0.00,,,0.00,weatherlink.com 1.10,2013-05-31 13:28:00,
2013-05-31 09:44:00,80.0,69.0,30.04,ESE,103,1.0,5.0,69,0.00,,,0.00,weatherlink.com 1.10,2013-05-31 13:44:00,
2013-05-31 09:59:00,81.2,69.0,30.04,SE,127,2.0,5.0,67,0.00,,,0.00,weatherlink.com 1.10,2013-05-31 13:59:00,
2013-05-31 10:15:00,82.1,69.0,30.03,ESE,103,0.0,4.0,65,0.00,,,0.00,weatherlink.com 1.10,2013-05-31 14:15:00,
2013-05-31 10:31:00,83.7,70.0,30.03,SE,141,0.0,6.0,63,0.00,,,0.00,weatherlink.com 1.10,2013-05-31 14:31:00,
2013-05-31 10:47:00,85.7,70.0,30.03,ESE,115,0.0,4.0,59,0.00,,,0.00,weatherlink.com 1.10,2013-05-31 14:47:00,
2013-05-31 11:02:00,84.6,69.0,30.02,ESE,115,1.0,7.0,59,0.00,,,0.00,weatherlink.com 1.10,2013-05-31 15:02:00,
2013-05-31 11:18:00,85.3,70.0,30.02,North,359,0.0,7.0,60,0.00,,,0.00,weatherlink.com 1.10,2013-05-31 15:18:00,
2013-05-31 11:34:00,88.1,69.0,30.01,ESE,115,1.0,5.0,54,0.00,,,0.00,weatherlink.com 1.10,2013-05-31 15:34:00,
2013-05-31 11:50:00,87.7,70.0,30.01,WNW,297,1.0,8.0,55,0.00,,,0.00,weatherlink.com 1.10,2013-05-31 15:50:00,
2013-05-31 12:06:00,88.5,70.0,30.00,ESE,117,0.0,7.0,54,0.00,,,0.00,weatherlink.com 1.10,2013-05-31 16:06:00,
2013-05-31 12:21:00,89.3,68.0,29.99,ENE,67,2.0,8.0,50,0.00,,,0.00,weatherlink.com 1.10,2013-05-31 16:21:00,
2013-05-31 12:37:00,89.2,69.0,29.98,NNW,335,4.0,8.0,51,0.00,,,0.00,weatherlink.com 1.10,2013-05-31 16:37:00,
2013-05-31 12:53:00,90.4,66.0,29.98,West,259,1.0,8.0,44,0.00,,,0.00,weatherlink.com 1.10,2013-05-31 16:53:00,
2013-05-31 13:09:00,91.5,68.0,29.98,ESE,120,6.0,7.0,46,0.00,,,0.00,weatherlink.com 1.10,2013-05-31 17:09:00,
2013-05-31 13:24:00,92.1,68.0,29.98,ESE,114,5.0,9.0,45,0.00,,,0.00,weatherlink.com 1.10,2013-05-31 17:24:00,
2013-05-31 13:40:00,91.6,67.0,29.97,ESE,120,1.0,10.0,44,0.00,,,0.00,weatherlink.com 1.10,2013-05-31 17:40:00,
2013-05-31 13:56:00,91.8,65.0,29.96,East,84,1.0,8.0,41,0.00,,,0.00,weatherlink.com 1.10,2013-05-31 17:56:00,
2013-05-31 14:12:00,94.0,67.0,29.95,SE,125,4.0,7.0,41,0.00,,,0.00,weatherlink.com 1.10,2013-05-31 18:12:00,
2013-05-31 14:28:00,93.4,65.0,29.95,ESE,105,1.0,5.0,40,0.00,,,0.00,weatherlink.com 1.10,2013-05-31 18:28:00,
2013-05-31 14:43:00,92.3,67.0,29.95,ESE,117,4.0,6.0,43,0.00,,,0.00,weatherlink.com 1.10,2013-05-31 18:43:00,
2013-05-31 14:59:00,92.8,66.0,29.94,ESE,115,10.0,10.0,42,0.00,,,0.00,weatherlink.com 1.10,2013-05-31 18:59:00,
2013-05-31 15:15:00,93.2,67.0,29.94,ESE,114,6.0,7.0,42,0.00,,,0.00,weatherlink.com 1.10,2013-05-31 19:15:00,
2013-05-31 15:31:00,93.2,68.0,29.94,ESE,114,2.0,8.0,44,0.00,,,0.00,weatherlink.com 1.10,2013-05-31 19:31:00,
2013-05-31 15:47:00,93.2,65.0,29.93,West,273,1.0,6.0,40,0.00,,,0.00,weatherlink.com 1.10,2013-05-31 19:47:00,
2013-05-31 16:03:00,93.3,65.0,29.93,SE,127,6.0,8.0,40,0.00,,,0.00,weatherlink.com 1.10,2013-05-31 20:03:00,
2013-05-31 16:18:00,93.5,66.0,29.92,SE,129,8.0,8.0,40,0.00,,,0.00,weatherlink.com 1.10,2013-05-31 20:18:00,
2013-05-31 16:34:00,92.8,65.0,29.92,ESE,118,7.0,9.0,40,0.00,,,0.00,weatherlink.com 1.10,2013-05-31 20:34:00,
2013-05-31 16:50:00,92.6,66.0,29.91,East,101,10.0,11.0,42,0.00,,,0.00,weatherlink.com 1.10,2013-05-31 20:50:00,
2013-05-31 17:06:00,92.9,66.0,29.91,ESE,110,4.0,10.0,42,0.00,,,0.00,weatherlink.com 1.10,2013-05-31 21:06:00,
2013-05-31 17:21:00,92.5,66.0,29.90,ESE,116,5.0,11.0,42,0.00,,,0.00,weatherlink.com 1.10,2013-05-31 21:21:00,
2013-05-31 17:37:00,92.1,66.0,29.89,SE,127,5.0,11.0,43,0.00,,,0.00,weatherlink.com 1.10,2013-05-31 21:37:00,
2013-05-31 17:53:00,91.8,67.0,29.88,ESE,113,2.0,12.0,45,0.00,,,0.00,weatherlink.com 1.10,2013-05-31 21:53:00,
2013-05-31 18:09:00,91.4,67.0,29.88,ESE,120,6.0,10.0,45,0.00,,,0.00,weatherlink.com 1.10,2013-05-31 22:09:00,
2013-05-31 18:25:00,90.9,67.0,29.87,ESE,106,5.0,14.0,45,0.00,,,0.00,weatherlink.com 1.10,2013-05-31 22:25:00,
2013-05-31 18:40:00,90.9,67.0,29.88,East,101,5.0,9.0,45,0.00,,,0.00,weatherlink.com 1.10,2013-05-31 22:40:00,
2013-05-31 18:56:00,90.4,65.0,29.87,ESE,120,2.0,8.0,43,0.00,,,0.00,weatherlink.com 1.10,2013-05-31 22:56:00,
2013-05-31 19:12:00,89.9,64.0,29.87,ESE,117,4.0,10.0,43,0.00,,,0.00,weatherlink.com 1.10,2013-05-31 23:12:00,
2013-05-31 19:28:00,89.1,64.0,29.87,ESE,122,9.0,11.0,44,0.00,,,0.00,weatherlink.com 1.10,2013-05-31 23:28:00,
2013-05-31 19:43:00,88.1,65.0,29.87,ESE,110,6.0,9.0,46,0.00,,,0.00,weatherlink.com 1.10,2013-05-31 23:43:00,
2013-05-31 19:59:00,87.1,64.0,29.87,ESE,117,3.0,8.0,47,0.00,,,0.00,weatherlink.com 1.10,2013-05-31 23:59:00,
2013-05-31 20:16:00,85.8,65.0,29.87,SE,133,2.0,9.0,50,0.00,,,0.00,weatherlink.com 1.10,2013-06-01 00:16:00,
2013-05-31 20:32:00,85.1,65.0,29.88,SSE,152,2.0,8.0,51,0.00,,,0.00,weatherlink.com 1.10,2013-06-01 00:32:00,
2013-05-31 20:47:00,84.4,65.0,29.88,ESE,106,3.0,7.0,53,0.00,,,0.00,weatherlink.com 1.10,2013-06-01 00:47:00,
2013-05-31 21:03:00,83.7,65.0,29.89,East,89,4.0,8.0,54,0.00,,,0.00,weatherlink.com 1.10,2013-06-01 01:03:00,
2013-05-31 21:20:00,83.1,66.0,29.89,East,101,5.0,7.0,56,0.00,,,0.00,weatherlink.com 1.10,2013-06-01 01:20:00,
2013-05-31 21:36:00,82.4,66.0,29.89,ESE,118,3.0,7.0,57,0.00,,,0.00,weatherlink.com 1.10,2013-06-01 01:36:00,
2013-05-31 21:51:00,81.7,65.0,29.90,SE,125,4.0,8.0,58,0.00,,,0.00,weatherlink.com 1.10,2013-06-01 01:51:00,
2013-05-31 22:07:00,80.8,65.0,29.90,ESE,122,4.0,6.0,59,0.00,,,0.00,weatherlink.com 1.10,2013-06-01 02:07:00,
2013-05-31 22:23:00,80.4,65.0,29.91,ESE,117,3.0,9.0,60,0.00,,,0.00,weatherlink.com 1.10,2013-06-01 02:23:00,
2013-05-31 22:39:00,80.1,65.0,29.91,East,89,4.0,8.0,61,0.00,,,0.00,weatherlink.com 1.10,2013-06-01 02:39:00,
2013-05-31 22:55:00,79.8,66.0,29.91,ESE,116,3.0,7.0,62,0.00,,,0.00,weatherlink.com 1.10,2013-06-01 02:55:00,
2013-05-31 23:10:00,79.6,65.0,29.91,ESE,117,1.0,6.0,62,0.00,,,0.00,weatherlink.com 1.10,2013-06-01 03:10:00,
2013-05-31 23:26:00,79.2,66.0,29.91,ESE,104,3.0,6.0,63,0.00,,,0.00,weatherlink.com 1.10,2013-06-01 03:26:00,
2013-05-31 23:42:00,79.1,65.0,29.91,East,94,5.0,8.0,63,0.00,,,0.00,weatherlink.com 1.10,2013-06-01 03:42:00,
2013-05-31 23:57:00,78.7,65.0,29.91,East,98,0.0,5.0,64,0.00,,,0.00,weatherlink.com 1.10,2013-06-01 03:57:00,